WetterOnline ( http://www.wetteronline.de )

Wetter aktuell PLZ Bereich 36404

Aktuelles Wetter: Bad Hersfeld (273m)

6-stündlich | Neueste Meldungen
Ortszeit Temperatur Wetter
Mi, 19.09. 20:00 24.8° C wolkig
Mi, 19.09. 14:00 28.8° C leicht bewölkt
Mi, 19.09. 8:00 13.4° C wolkig
Mi, 19.09. 2:00 16.2° C leicht bewölkt
Di, 18.09. 20:00 24.1° C wolkenlos
Di, 18.09. 14:00 29.6° C wolkenlos
Di, 18.09. 8:00 7.5° C wolkenlos
Di, 18.09. 2:00 10.7° C leicht bewölkt
Ortszeit Temperatur Wetter
Mi, 19.09. 21:00 23.6° C wolkig
Mi, 19.09. 20:50 23.6° C wolkig
Mi, 19.09. 20:40 23.8° C wolkig
Mi, 19.09. 20:30 24.3° C wolkig
Mi, 19.09. 20:20 24.3° C wolkig
Mi, 19.09. 20:10 24.3° C wolkig
Mi, 19.09. 20:00 24.8° C wolkig
Mi, 19.09. 19:30 25.7° C wolkig
Mi, 19.09. 19:00 26.6° C leicht bewölkt
Mi, 19.09. 18:30 27.0° C wolkig
Mi, 19.09. 18:00 27.3° C leicht bewölkt
Ortszeit Relative Feuchte Sichtweite
Mi, 19.09. 20:00 45% 17 km
Mi, 19.09. 14:00 35% 15 km
Mi, 19.09. 8:00 85% 12 km
Mi, 19.09. 2:00 74% 16 km
Di, 18.09. 20:00 42% 21 km
Di, 18.09. 14:00 29% 20 km
Di, 18.09. 8:00 90% 10 km
Di, 18.09. 2:00 79% 14 km
Ortszeit Relative Feuchte Sichtweite
Mi, 19.09. 21:00 49% 17 km
Mi, 19.09. 20:50 49% -
Mi, 19.09. 20:40 49% -
Mi, 19.09. 20:30 47% 17 km
Mi, 19.09. 20:20 47% -
Mi, 19.09. 20:10 47% -
Mi, 19.09. 20:00 45% 17 km
Mi, 19.09. 19:30 43% 17 km
Mi, 19.09. 19:00 40% 19 km
Mi, 19.09. 18:30 39% 21 km
Mi, 19.09. 18:00 37% 16 km
Ortszeit Niederschlagsmenge Niederschlagsart
Mi, 19.09. 20:00 0.0 l/m2 in 12 Std. -
Mi, 19.09. 14:00 0.0 l/m2 in 6 Std. -
Mi, 19.09. 8:00 0.0 l/m2 in 12 Std. -
Mi, 19.09. 2:00 0.0 l/m2 in 6 Std. -
Di, 18.09. 20:00 0.0 l/m2 in 12 Std. -
Di, 18.09. 14:00 0.0 l/m2 in 6 Std. -
Di, 18.09. 8:00 0.0 l/m2 in 12 Std. -
Di, 18.09. 2:00 0.0 l/m2 in 6 Std. -
Ortszeit Niederschlagsmenge Niederschlagsart
Mi, 19.09. 21:00 0.0 l/m2 in 1 Std. -
Mi, 19.09. 20:50 keine Meldung -
Mi, 19.09. 20:40 keine Meldung -
Mi, 19.09. 20:30 0.0 l/m2 in 1 Std. -
Mi, 19.09. 20:20 keine Meldung -
Mi, 19.09. 20:10 keine Meldung -
Mi, 19.09. 20:00 0.0 l/m2 in 1 Std. -
Mi, 19.09. 19:30 0.0 l/m2 in 1 Std. -
Mi, 19.09. 19:00 0.0 l/m2 in 1 Std. -
Mi, 19.09. 18:30 0.0 l/m2 in 1 Std. -
Mi, 19.09. 18:00 0.0 l/m2 in 1 Std. -
Ortszeit Stärke Spitze Richtung
km/h Bft. km/h Grad Sektor
Mi, 19.09. 20:00 9 2 44 190° S
Mi, 19.09. 14:00 17 3 33 210° SW
Mi, 19.09. 8:00 2 1 7 70° O
Mi, 19.09. 2:00 2 1 17 100° O
Di, 18.09. 20:00 9 2 39 170° S
Di, 18.09. 14:00 20 4 35 170° S
Di, 18.09. 8:00 0 0 4 - -
Di, 18.09. 2:00 0 0 7 - -
Ortszeit Stärke Spitze Richtung
km/h Bft. km/h Grad Sektor
Mi, 19.09. 21:00 7 2 22 210° SW
Mi, 19.09. 20:50 7 2 - 210° SW
Mi, 19.09. 20:40 7 2 - 190° S
Mi, 19.09. 20:30 13 3 19 180° S
Mi, 19.09. 20:20 13 3 - 180° S
Mi, 19.09. 20:10 13 3 - 180° S
Mi, 19.09. 20:00 9 2 24 190° S
Mi, 19.09. 19:30 13 3 24 190° S
Mi, 19.09. 19:00 17 3 33 200° S
Mi, 19.09. 18:30 22 4 32 210° SW
Mi, 19.09. 18:00 19 3 44 210° SW
Ortszeit Untergrenze Bedeckung Gattung
total tief tief mittel hoch
Mi, 19.09. 20:00 10500 m 8/8 0/8 - - -
Mi, 19.09. 14:00 1800 m 4/8 - - - -
Mi, 19.09. 8:00 2700 m 7/8 2/8 - - -
Mi, 19.09. 2:00 5100 m 5/8 1/8 - - -
Di, 18.09. 20:00 - 0/8 0/8 - - -
Di, 18.09. 14:00 - 0/8 0/8 - - -
Di, 18.09. 8:00 - 0/8 0/8 - - -
Di, 18.09. 2:00 9000 m 4/8 0/8 - - -
Ortszeit Bedeckungsgrad in Achtel und Wolkenuntergrenze
Mi, 19.09. 21:00 8(10500m) 8(10500m)
Mi, 19.09. 20:50 8(10500m) 8(10500m)
Mi, 19.09. 20:40 8(10500m) 8(10500m)
Mi, 19.09. 20:30 8(10500m) 8(10500m)
Mi, 19.09. 20:20 8(10500m)
Mi, 19.09. 20:10 8(10500m)
Mi, 19.09. 20:00 8(10500m)
Mi, 19.09. 19:30 8(10500m)
Mi, 19.09. 19:00 6(10500m)
Mi, 19.09. 18:30 1(2100m) 8(10500m)
Mi, 19.09. 18:00 1(1800m) 5(10500m)
Ortszeit Luftdruck NN (hPa) Tendenz (hPa in 3 Std.)
Mi, 19.09. 20:00 1017 + 0,3
Mi, 19.09. 14:00 1017 - 1,0
Mi, 19.09. 8:00 1019 + 0,9
Mi, 19.09. 2:00 1017 + 1,0
Di, 18.09. 20:00 1014 + 0,6
Di, 18.09. 14:00 1014 - 1,5
Di, 18.09. 8:00 1018 0,0
Di, 18.09. 2:00 1018 - 0,5
Ortszeit Luftdruck NN (hPa) Tendenz (hPa in 3 Std.)
Mi, 19.09. 21:00 1018 + 0,6
Mi, 19.09. 20:50 1018 keine Meldung
Mi, 19.09. 20:40 1017 keine Meldung
Mi, 19.09. 20:30 1017 + 0,3
Mi, 19.09. 20:20 1017 keine Meldung
Mi, 19.09. 20:10 1017 keine Meldung
Mi, 19.09. 20:00 1017 + 0,3
Mi, 19.09. 19:30 1017 - 0,2
Mi, 19.09. 19:00 1016 - 0,4
Mi, 19.09. 18:30 1017 - 0,6
Mi, 19.09. 18:00 1017 - 0,5
Ortszeit Schneehöhe (cm)
Mi, 19.09. 20:00 -
Mi, 19.09. 14:00 -
Mi, 19.09. 8:00 -
Mi, 19.09. 2:00 -
Di, 18.09. 20:00 -
Di, 18.09. 14:00 -
Di, 18.09. 8:00 -
Di, 18.09. 2:00 -
Ortszeit Schneehöhe (cm)
Mi, 19.09. 21:00 -
Mi, 19.09. 20:50 -
Mi, 19.09. 20:40 -
Mi, 19.09. 20:30 -
Mi, 19.09. 20:20 -
Mi, 19.09. 20:10 -
Mi, 19.09. 20:00 -
Mi, 19.09. 19:30 -
Mi, 19.09. 19:00 -
Mi, 19.09. 18:30 -
Mi, 19.09. 18:00 -
Link zu dieser Seite / Seite empfehlen

Das Wetter in ...